Green Valley, Nevada
Current Conditions -  °F | °C
As of 3:56 AM on Saturday 25 Oct 2014 (Local Time) from KLAS Reporting Station
Clear Clear  
Wind Chill: 66°   Ceiling: Unl
Heat Index: 66°   Visibility: 10mi
Dew Point: 38°   Wind: 6mph
Humidity: 36%   Direction: 200°SSW
Pressure: 29.98"   Gusts: NA
Location:  36.0622°N, 115.056°W
Report Text: KLAS 251056Z 20005KT 10SM CLR 19/03 A2998 RMK AO2 SLP129 T01890033
Loading
Personal Weather Stations






























Interactive Weather Map
Tropical Storm Tracking
New forecast layout! Learn more

10-Day Weather Forecast

Advertisements
Track Severe Weather on mobile